sensor_id;sensor_type;location;lat;lon;timestamp;temperature;humidity
59311;DHT22;45078;51.654;21.250;2022-07-17T00:01:53;11.40;99.90
59311;DHT22;45078;51.654;21.250;2022-07-17T00:04:19;11.40;99.90
59311;DHT22;45078;51.654;21.250;2022-07-17T00:06:45;11.40;99.90
59311;DHT22;45078;51.654;21.250;2022-07-17T00:09:11;11.40;99.90
59311;DHT22;45078;51.654;21.250;2022-07-17T00:11:37;11.50;99.90
59311;DHT22;45078;51.654;21.250;2022-07-17T00:14:03;11.50;99.90
59311;DHT22;45078;51.654;21.250;2022-07-17T00:16:29;11.40;99.90
59311;DHT22;45078;51.654;21.250;2022-07-17T00:18:54;11.40;99.90
59311;DHT22;45078;51.654;21.250;2022-07-17T00:21:20;11.40;99.90
59311;DHT22;45078;51.654;21.250;2022-07-17T00:23:46;11.40;99.90
59311;DHT22;45078;51.654;21.250;2022-07-17T00:26:12;11.30;99.90
59311;DHT22;45078;51.654;21.250;2022-07-17T00:28:38;11.30;99.90
59311;DHT22;45078;51.654;21.250;2022-07-17T00:31:04;11.30;99.90
59311;DHT22;45078;51.654;21.250;2022-07-17T00:33:30;11.30;99.90
59311;DHT22;45078;51.654;21.250;2022-07-17T00:35:56;11.30;99.90
59311;DHT22;45078;51.654;21.250;2022-07-17T00:38:22;11.20;99.90
59311;DHT22;45078;51.654;21.250;2022-07-17T00:40:48;11.30;99.90
59311;DHT22;45078;51.654;21.250;2022-07-17T00:43:14;11.30;99.90
59311;DHT22;45078;51.654;21.250;2022-07-17T00:45:39;11.40;99.90
59311;DHT22;45078;51.654;21.250;2022-07-17T00:48:11;11.40;99.90
59311;DHT22;45078;51.654;21.250;2022-07-17T00:50:39;11.40;99.90
59311;DHT22;45078;51.654;21.250;2022-07-17T00:53:06;11.40;99.90
59311;DHT22;45078;51.654;21.250;2022-07-17T00:55:32;11.30;99.90
59311;DHT22;45078;51.654;21.250;2022-07-17T00:58:01;11.40;99.90
59311;DHT22;45078;51.654;21.250;2022-07-17T01:00:27;11.30;99.90
59311;DHT22;45078;51.654;21.250;2022-07-17T01:02:54;11.30;99.90
59311;DHT22;45078;51.654;21.250;2022-07-17T01:05:21;11.30;99.90
59311;DHT22;45078;51.654;21.250;2022-07-17T01:07:48;11.30;99.90
59311;DHT22;45078;51.654;21.250;2022-07-17T01:10:15;11.30;99.90
59311;DHT22;45078;51.654;21.250;2022-07-17T01:12:45;11.30;99.90
59311;DHT22;45078;51.654;21.250;2022-07-17T01:15:12;11.20;99.90
59311;DHT22;45078;51.654;21.250;2022-07-17T01:17:38;11.20;99.90
59311;DHT22;45078;51.654;21.250;2022-07-17T01:20:09;11.20;99.90
59311;DHT22;45078;51.654;21.250;2022-07-17T01:22:46;11.20;99.90
59311;DHT22;45078;51.654;21.250;2022-07-17T01:25:12;11.20;99.90
59311;DHT22;45078;51.654;21.250;2022-07-17T01:27:39;11.10;99.90
59311;DHT22;45078;51.654;21.250;2022-07-17T01:30:06;11.10;99.90
59311;DHT22;45078;51.654;21.250;2022-07-17T01:32:37;11.10;99.90
59311;DHT22;45078;51.654;21.250;2022-07-17T01:35:05;11.10;99.90
59311;DHT22;45078;51.654;21.250;2022-07-17T01:37:31;11.10;99.90
59311;DHT22;45078;51.654;21.250;2022-07-17T01:39:57;11.10;99.90
59311;DHT22;45078;51.654;21.250;2022-07-17T01:42:25;11.10;99.90
59311;DHT22;45078;51.654;21.250;2022-07-17T01:44:52;11.10;99.90
59311;DHT22;45078;51.654;21.250;2022-07-17T01:47:18;11.10;99.90
59311;DHT22;45078;51.654;21.250;2022-07-17T01:49:46;11.10;99.90
59311;DHT22;45078;51.654;21.250;2022-07-17T01:52:12;11.10;99.90
59311;DHT22;45078;51.654;21.250;2022-07-17T01:54:39;11.20;99.90
59311;DHT22;45078;51.654;21.250;2022-07-17T01:57:05;11.20;99.90
59311;DHT22;45078;51.654;21.250;2022-07-17T01:59:31;11.20;99.90
59311;DHT22;45078;51.654;21.250;2022-07-17T02:01:57;11.20;99.90
59311;DHT22;45078;51.654;21.250;2022-07-17T02:04:23;11.20;99.90
59311;DHT22;45078;51.654;21.250;2022-07-17T02:06:49;11.20;99.90
59311;DHT22;45078;51.654;21.250;2022-07-17T02:09:15;11.20;99.90
59311;DHT22;45078;51.654;21.250;2022-07-17T02:11:41;11.30;99.90
59311;DHT22;45078;51.654;21.250;2022-07-17T02:14:07;11.30;99.90
59311;DHT22;45078;51.654;21.250;2022-07-17T02:16:33;11.40;99.90
59311;DHT22;45078;51.654;21.250;2022-07-17T02:18:58;11.40;99.90
59311;DHT22;45078;51.654;21.250;2022-07-17T02:21:24;11.40;99.90
59311;DHT22;45078;51.654;21.250;2022-07-17T02:23:50;11.50;99.90
59311;DHT22;45078;51.654;21.250;2022-07-17T02:26:16;11.50;99.90
59311;DHT22;45078;51.654;21.250;2022-07-17T02:28:42;11.50;99.90
59311;DHT22;45078;51.654;21.250;2022-07-17T02:31:09;11.60;99.90
59311;DHT22;45078;51.654;21.250;2022-07-17T02:33:35;11.60;99.90
59311;DHT22;45078;51.654;21.250;2022-07-17T02:36:01;11.60;99.90
59311;DHT22;45078;51.654;21.250;2022-07-17T02:38:27;11.60;99.90
59311;DHT22;45078;51.654;21.250;2022-07-17T02:40:53;11.60;99.90
59311;DHT22;45078;51.654;21.250;2022-07-17T02:43:19;11.60;99.90
59311;DHT22;45078;51.654;21.250;2022-07-17T02:45:45;11.60;99.90
59311;DHT22;45078;51.654;21.250;2022-07-17T02:48:11;11.50;99.90
59311;DHT22;45078;51.654;21.250;2022-07-17T02:50:36;11.50;99.90
59311;DHT22;45078;51.654;21.250;2022-07-17T02:53:02;11.50;99.90
59311;DHT22;45078;51.654;21.250;2022-07-17T02:55:28;11.50;99.90
59311;DHT22;45078;51.654;21.250;2022-07-17T02:57:54;11.50;99.90
59311;DHT22;45078;51.654;21.250;2022-07-17T03:00:20;11.50;99.90
59311;DHT22;45078;51.654;21.250;2022-07-17T03:02:46;11.40;99.90
59311;DHT22;45078;51.654;21.250;2022-07-17T03:05:14;11.40;99.90
59311;DHT22;45078;51.654;21.250;2022-07-17T03:07:40;11.40;99.90
59311;DHT22;45078;51.654;21.250;2022-07-17T03:10:07;11.40;99.90
59311;DHT22;45078;51.654;21.250;2022-07-17T03:12:33;11.30;99.90
59311;DHT22;45078;51.654;21.250;2022-07-17T03:14:59;11.40;99.90
59311;DHT22;45078;51.654;21.250;2022-07-17T03:17:25;11.30;99.90
59311;DHT22;45078;51.654;21.250;2022-07-17T03:19:52;11.30;99.90
59311;DHT22;45078;51.654;21.250;2022-07-17T03:22:17;11.30;99.90
59311;DHT22;45078;51.654;21.250;2022-07-17T03:24:44;11.30;99.90
59311;DHT22;45078;51.654;21.250;2022-07-17T03:27:09;11.30;99.90
59311;DHT22;45078;51.654;21.250;2022-07-17T03:29:35;11.30;99.90
59311;DHT22;45078;51.654;21.250;2022-07-17T03:32:01;11.40;99.90
59311;DHT22;45078;51.654;21.250;2022-07-17T03:34:27;11.50;99.90
59311;DHT22;45078;51.654;21.250;2022-07-17T03:36:53;11.50;99.90
59311;DHT22;45078;51.654;21.250;2022-07-17T03:39:19;11.60;99.90
59311;DHT22;45078;51.654;21.250;2022-07-17T03:41:45;11.60;99.90
59311;DHT22;45078;51.654;21.250;2022-07-17T03:44:10;11.70;99.90
59311;DHT22;45078;51.654;21.250;2022-07-17T03:46:36;11.70;99.90
59311;DHT22;45078;51.654;21.250;2022-07-17T03:49:02;11.80;99.90
59311;DHT22;45078;51.654;21.250;2022-07-17T03:51:28;11.90;99.90
59311;DHT22;45078;51.654;21.250;2022-07-17T03:53:54;12.00;99.90
59311;DHT22;45078;51.654;21.250;2022-07-17T03:56:20;12.10;99.90
59311;DHT22;45078;51.654;21.250;2022-07-17T03:58:46;12.10;99.90
59311;DHT22;45078;51.654;21.250;2022-07-17T04:01:12;12.20;99.90
59311;DHT22;45078;51.654;21.250;2022-07-17T04:03:38;12.20;99.90
59311;DHT22;45078;51.654;21.250;2022-07-17T04:06:04;12.20;99.90
59311;DHT22;45078;51.654;21.250;2022-07-17T04:08:30;12.20;99.90
59311;DHT22;45078;51.654;21.250;2022-07-17T04:10:56;12.30;99.90
59311;DHT22;45078;51.654;21.250;2022-07-17T04:13:22;12.30;99.90
59311;DHT22;45078;51.654;21.250;2022-07-17T04:15:48;12.30;99.90
59311;DHT22;45078;51.654;21.250;2022-07-17T04:18:25;12.40;99.90
59311;DHT22;45078;51.654;21.250;2022-07-17T04:20:51;12.40;99.90
59311;DHT22;45078;51.654;21.250;2022-07-17T04:23:18;12.40;99.90
59311;DHT22;45078;51.654;21.250;2022-07-17T04:25:44;12.50;99.90
59311;DHT22;45078;51.654;21.250;2022-07-17T04:28:11;12.50;99.90
59311;DHT22;45078;51.654;21.250;2022-07-17T04:30:37;12.50;99.90
59311;DHT22;45078;51.654;21.250;2022-07-17T04:33:03;12.50;99.90
59311;DHT22;45078;51.654;21.250;2022-07-17T04:35:29;12.40;99.90
59311;DHT22;45078;51.654;21.250;2022-07-17T04:37:55;12.40;99.90
59311;DHT22;45078;51.654;21.250;2022-07-17T04:40:21;12.50;99.90
59311;DHT22;45078;51.654;21.250;2022-07-17T04:42:48;12.40;99.90
59311;DHT22;45078;51.654;21.250;2022-07-17T04:45:14;12.50;99.90
59311;DHT22;45078;51.654;21.250;2022-07-17T04:47:40;12.50;99.90
59311;DHT22;45078;51.654;21.250;2022-07-17T04:50:07;12.50;99.90
59311;DHT22;45078;51.654;21.250;2022-07-17T04:52:34;12.60;99.90
59311;DHT22;45078;51.654;21.250;2022-07-17T04:55:00;12.60;99.90
59311;DHT22;45078;51.654;21.250;2022-07-17T04:57:26;12.70;99.90
59311;DHT22;45078;51.654;21.250;2022-07-17T04:59:52;12.80;99.90
59311;DHT22;45078;51.654;21.250;2022-07-17T05:02:18;12.80;99.90
59311;DHT22;45078;51.654;21.250;2022-07-17T05:04:44;12.90;99.90
59311;DHT22;45078;51.654;21.250;2022-07-17T05:07:10;13.10;99.90
59311;DHT22;45078;51.654;21.250;2022-07-17T05:09:35;13.30;99.90
59311;DHT22;45078;51.654;21.250;2022-07-17T05:12:01;13.30;99.90
59311;DHT22;45078;51.654;21.250;2022-07-17T05:14:27;13.40;99.90
59311;DHT22;45078;51.654;21.250;2022-07-17T05:16:53;13.40;99.90
59311;DHT22;45078;51.654;21.250;2022-07-17T05:19:19;13.50;99.90
59311;DHT22;45078;51.654;21.250;2022-07-17T05:21:45;13.50;99.90
59311;DHT22;45078;51.654;21.250;2022-07-17T05:24:11;13.50;99.90
59311;DHT22;45078;51.654;21.250;2022-07-17T05:26:36;13.50;99.90
59311;DHT22;45078;51.654;21.250;2022-07-17T05:29:02;13.50;99.90
59311;DHT22;45078;51.654;21.250;2022-07-17T05:31:28;13.50;99.90
59311;DHT22;45078;51.654;21.250;2022-07-17T05:33:54;13.50;99.90
59311;DHT22;45078;51.654;21.250;2022-07-17T05:36:20;13.80;99.90
59311;DHT22;45078;51.654;21.250;2022-07-17T05:38:46;14.10;99.90
59311;DHT22;45078;51.654;21.250;2022-07-17T05:41:12;14.40;99.90
59311;DHT22;45078;51.654;21.250;2022-07-17T05:43:37;14.60;99.90
59311;DHT22;45078;51.654;21.250;2022-07-17T05:46:04;14.80;99.90
59311;DHT22;45078;51.654;21.250;2022-07-17T05:48:30;15.00;99.90
59311;DHT22;45078;51.654;21.250;2022-07-17T05:50:57;14.90;99.90
59311;DHT22;45078;51.654;21.250;2022-07-17T05:53:23;14.90;99.90
59311;DHT22;45078;51.654;21.250;2022-07-17T05:55:49;15.00;99.90
59311;DHT22;45078;51.654;21.250;2022-07-17T05:58:15;15.20;99.90
59311;DHT22;45078;51.654;21.250;2022-07-17T06:00:41;15.20;99.90
59311;DHT22;45078;51.654;21.250;2022-07-17T06:03:07;15.20;99.90
59311;DHT22;45078;51.654;21.250;2022-07-17T06:05:33;15.20;99.90
59311;DHT22;45078;51.654;21.250;2022-07-17T06:07:59;15.20;99.90
59311;DHT22;45078;51.654;21.250;2022-07-17T06:10:26;15.50;99.90
59311;DHT22;45078;51.654;21.250;2022-07-17T06:12:52;15.70;99.90
59311;DHT22;45078;51.654;21.250;2022-07-17T06:15:19;15.90;99.90
59311;DHT22;45078;51.654;21.250;2022-07-17T06:17:45;16.00;99.90
59311;DHT22;45078;51.654;21.250;2022-07-17T06:20:13;16.10;99.90
59311;DHT22;45078;51.654;21.250;2022-07-17T06:22:40;16.10;99.90
59311;DHT22;45078;51.654;21.250;2022-07-17T06:25:06;16.40;99.90
59311;DHT22;45078;51.654;21.250;2022-07-17T06:27:32;16.40;99.90
59311;DHT22;45078;51.654;21.250;2022-07-17T06:29:58;16.30;99.90
59311;DHT22;45078;51.654;21.250;2022-07-17T06:32:24;16.30;99.90
59311;DHT22;45078;51.654;21.250;2022-07-17T06:34:50;16.50;99.90
59311;DHT22;45078;51.654;21.250;2022-07-17T06:37:16;16.60;99.90
59311;DHT22;45078;51.654;21.250;2022-07-17T06:39:42;16.60;99.90
59311;DHT22;45078;51.654;21.250;2022-07-17T06:42:08;16.70;99.90
59311;DHT22;45078;51.654;21.250;2022-07-17T06:44:36;16.80;99.90
59311;DHT22;45078;51.654;21.250;2022-07-17T06:47:02;16.80;99.90
59311;DHT22;45078;51.654;21.250;2022-07-17T06:49:28;16.70;99.90
59311;DHT22;45078;51.654;21.250;2022-07-17T06:51:54;16.70;99.90
59311;DHT22;45078;51.654;21.250;2022-07-17T06:54:19;16.70;99.90
59311;DHT22;45078;51.654;21.250;2022-07-17T06:56:49;16.90;99.90
59311;DHT22;45078;51.654;21.250;2022-07-17T06:59:15;17.10;99.90
59311;DHT22;45078;51.654;21.250;2022-07-17T07:01:41;17.20;99.90
59311;DHT22;45078;51.654;21.250;2022-07-17T07:04:07;17.10;99.90
59311;DHT22;45078;51.654;21.250;2022-07-17T07:06:33;17.20;99.90
59311;DHT22;45078;51.654;21.250;2022-07-17T07:08:59;17.40;99.90
59311;DHT22;45078;51.654;21.250;2022-07-17T07:11:27;17.30;99.90
59311;DHT22;45078;51.654;21.250;2022-07-17T07:13:53;17.60;99.90
59311;DHT22;45078;51.654;21.250;2022-07-17T07:16:19;17.60;99.90
59311;DHT22;45078;51.654;21.250;2022-07-17T07:18:46;17.70;99.90
59311;DHT22;45078;51.654;21.250;2022-07-17T07:21:12;17.30;99.90
59311;DHT22;45078;51.654;21.250;2022-07-17T07:23:38;17.30;99.90
59311;DHT22;45078;51.654;21.250;2022-07-17T07:26:04;17.30;99.90
59311;DHT22;45078;51.654;21.250;2022-07-17T07:28:30;17.40;99.90
59311;DHT22;45078;51.654;21.250;2022-07-17T07:30:56;17.20;99.90
59311;DHT22;45078;51.654;21.250;2022-07-17T07:33:22;17.40;99.90
59311;DHT22;45078;51.654;21.250;2022-07-17T07:35:47;17.50;99.90
59311;DHT22;45078;51.654;21.250;2022-07-17T07:38:13;17.40;99.90
59311;DHT22;45078;51.654;21.250;2022-07-17T07:40:39;17.30;99.90
59311;DHT22;45078;51.654;21.250;2022-07-17T07:43:05;17.50;99.90
59311;DHT22;45078;51.654;21.250;2022-07-17T07:45:31;17.40;99.90
59311;DHT22;45078;51.654;21.250;2022-07-17T07:47:57;17.50;99.90
59311;DHT22;45078;51.654;21.250;2022-07-17T07:50:24;17.60;99.90
59311;DHT22;45078;51.654;21.250;2022-07-17T07:52:51;17.80;99.90
59311;DHT22;45078;51.654;21.250;2022-07-17T07:55:18;17.90;99.90
59311;DHT22;45078;51.654;21.250;2022-07-17T07:57:44;18.00;99.90
59311;DHT22;45078;51.654;21.250;2022-07-17T08:00:11;18.20;99.90
59311;DHT22;45078;51.654;21.250;2022-07-17T08:02:37;18.20;99.90
59311;DHT22;45078;51.654;21.250;2022-07-17T08:05:04;18.20;99.90
59311;DHT22;45078;51.654;21.250;2022-07-17T08:07:30;18.00;99.90
59311;DHT22;45078;51.654;21.250;2022-07-17T08:09:56;17.90;99.90
59311;DHT22;45078;51.654;21.250;2022-07-17T08:12:23;17.90;99.90
59311;DHT22;45078;51.654;21.250;2022-07-17T08:14:49;18.00;99.90
59311;DHT22;45078;51.654;21.250;2022-07-17T08:17:16;18.00;99.90
59311;DHT22;45078;51.654;21.250;2022-07-17T08:19:42;18.00;99.90
59311;DHT22;45078;51.654;21.250;2022-07-17T08:22:08;17.90;99.90
59311;DHT22;45078;51.654;21.250;2022-07-17T08:24:34;18.10;99.90
59311;DHT22;45078;51.654;21.250;2022-07-17T08:27:00;18.40;99.90
59311;DHT22;45078;51.654;21.250;2022-07-17T08:29:26;18.50;99.90
59311;DHT22;45078;51.654;21.250;2022-07-17T08:31:52;18.30;99.90
59311;DHT22;45078;51.654;21.250;2022-07-17T08:34:19;18.50;99.90
59311;DHT22;45078;51.654;21.250;2022-07-17T08:36:45;18.50;99.90
59311;DHT22;45078;51.654;21.250;2022-07-17T08:39:11;18.30;99.90
59311;DHT22;45078;51.654;21.250;2022-07-17T08:41:37;18.30;99.90
59311;DHT22;45078;51.654;21.250;2022-07-17T08:44:05;18.40;99.90
59311;DHT22;45078;51.654;21.250;2022-07-17T08:46:35;18.50;99.90
59311;DHT22;45078;51.654;21.250;2022-07-17T08:49:02;18.70;99.90
59311;DHT22;45078;51.654;21.250;2022-07-17T08:51:28;18.80;99.90
59311;DHT22;45078;51.654;21.250;2022-07-17T08:53:56;18.70;99.90
59311;DHT22;45078;51.654;21.250;2022-07-17T08:56:22;18.80;99.90
59311;DHT22;45078;51.654;21.250;2022-07-17T08:58:48;19.10;99.90
59311;DHT22;45078;51.654;21.250;2022-07-17T09:01:14;19.30;99.90
59311;DHT22;45078;51.654;21.250;2022-07-17T09:03:41;19.50;99.90
59311;DHT22;45078;51.654;21.250;2022-07-17T09:06:21;19.70;99.90
59311;DHT22;45078;51.654;21.250;2022-07-17T09:08:47;19.70;99.90
59311;DHT22;45078;51.654;21.250;2022-07-17T09:11:13;19.70;99.90
59311;DHT22;45078;51.654;21.250;2022-07-17T09:13:45;19.90;99.90
59311;DHT22;45078;51.654;21.250;2022-07-17T09:16:12;19.90;99.90
59311;DHT22;45078;51.654;21.250;2022-07-17T09:18:52;19.90;99.90
59311;DHT22;45078;51.654;21.250;2022-07-17T09:21:27;19.80;99.90
59311;DHT22;45078;51.654;21.250;2022-07-17T09:24:01;19.50;99.90
59311;DHT22;45078;51.654;21.250;2022-07-17T09:26:28;19.30;99.90
59311;DHT22;45078;51.654;21.250;2022-07-17T09:28:54;19.10;99.90
59311;DHT22;45078;51.654;21.250;2022-07-17T09:31:28;19.40;99.90
59311;DHT22;45078;51.654;21.250;2022-07-17T09:33:54;19.70;99.90
59311;DHT22;45078;51.654;21.250;2022-07-17T09:36:21;19.70;99.90
59311;DHT22;45078;51.654;21.250;2022-07-17T09:38:52;19.90;99.90
59311;DHT22;45078;51.654;21.250;2022-07-17T09:41:19;20.20;99.90
59311;DHT22;45078;51.654;21.250;2022-07-17T09:43:50;19.90;99.90
59311;DHT22;45078;51.654;21.250;2022-07-17T09:46:26;19.70;99.90
59311;DHT22;45078;51.654;21.250;2022-07-17T09:48:54;19.70;99.90
59311;DHT22;45078;51.654;21.250;2022-07-17T09:51:25;19.80;99.90
59311;DHT22;45078;51.654;21.250;2022-07-17T09:53:55;20.00;99.90
59311;DHT22;45078;51.654;21.250;2022-07-17T09:56:23;19.90;99.90
59311;DHT22;45078;51.654;21.250;2022-07-17T09:59:00;19.80;99.90
59311;DHT22;45078;51.654;21.250;2022-07-17T10:01:28;19.70;99.90
59311;DHT22;45078;51.654;21.250;2022-07-17T10:03:54;19.80;99.90
59311;DHT22;45078;51.654;21.250;2022-07-17T10:06:22;20.20;99.90
59311;DHT22;45078;51.654;21.250;2022-07-17T10:08:49;20.30;99.90
59311;DHT22;45078;51.654;21.250;2022-07-17T10:11:15;20.10;99.90
59311;DHT22;45078;51.654;21.250;2022-07-17T10:13:44;20.10;99.90
59311;DHT22;45078;51.654;21.250;2022-07-17T10:16:11;20.00;99.90
59311;DHT22;45078;51.654;21.250;2022-07-17T10:18:41;19.80;99.90
59311;DHT22;45078;51.654;21.250;2022-07-17T10:23:36;20.20;99.90
59311;DHT22;45078;51.654;21.250;2022-07-17T10:26:02;20.10;99.90
59311;DHT22;45078;51.654;21.250;2022-07-17T10:28:40;19.90;99.90
59311;DHT22;45078;51.654;21.250;2022-07-17T10:31:06;20.10;99.90
59311;DHT22;45078;51.654;21.250;2022-07-17T10:33:31;20.50;99.90
59311;DHT22;45078;51.654;21.250;2022-07-17T10:35:57;20.70;99.90
59311;DHT22;45078;51.654;21.250;2022-07-17T10:38:27;21.00;99.90
59311;DHT22;45078;51.654;21.250;2022-07-17T10:41:00;20.90;99.90
59311;DHT22;45078;51.654;21.250;2022-07-17T10:43:26;21.10;99.90
59311;DHT22;45078;51.654;21.250;2022-07-17T10:45:52;21.00;99.90
59311;DHT22;45078;51.654;21.250;2022-07-17T10:48:20;20.70;99.90
59311;DHT22;45078;51.654;21.250;2022-07-17T10:50:54;20.80;99.90
59311;DHT22;45078;51.654;21.250;2022-07-17T10:53:29;20.90;99.90
59311;DHT22;45078;51.654;21.250;2022-07-17T10:56:14;20.90;99.90
59311;DHT22;45078;51.654;21.250;2022-07-17T10:58:43;21.10;99.90
59311;DHT22;45078;51.654;21.250;2022-07-17T11:01:18;21.30;99.90
59311;DHT22;45078;51.654;21.250;2022-07-17T11:03:59;21.00;99.90
59311;DHT22;45078;51.654;21.250;2022-07-17T11:06:38;20.60;99.90
59311;DHT22;45078;51.654;21.250;2022-07-17T11:09:09;20.30;99.90
59311;DHT22;45078;51.654;21.250;2022-07-17T11:11:39;20.40;99.90
59311;DHT22;45078;51.654;21.250;2022-07-17T11:14:11;20.60;99.90
59311;DHT22;45078;51.654;21.250;2022-07-17T11:16:38;20.90;99.90
59311;DHT22;45078;51.654;21.250;2022-07-17T11:19:10;21.00;99.90
59311;DHT22;45078;51.654;21.250;2022-07-17T11:21:49;21.10;99.90
59311;DHT22;45078;51.654;21.250;2022-07-17T11:24:16;21.20;99.90
59311;DHT22;45078;51.654;21.250;2022-07-17T11:26:42;21.40;99.90
59311;DHT22;45078;51.654;21.250;2022-07-17T11:29:10;21.60;99.90
59311;DHT22;45078;51.654;21.250;2022-07-17T11:31:37;21.60;99.90
59311;DHT22;45078;51.654;21.250;2022-07-17T11:34:05;21.60;99.90
59311;DHT22;45078;51.654;21.250;2022-07-17T11:36:34;21.80;99.90
59311;DHT22;45078;51.654;21.250;2022-07-17T11:39:15;21.90;99.90
59311;DHT22;45078;51.654;21.250;2022-07-17T11:41:47;21.90;98.60
59311;DHT22;45078;51.654;21.250;2022-07-17T11:44:21;22.10;99.90
59311;DHT22;45078;51.654;21.250;2022-07-17T11:46:49;22.00;99.90
59311;DHT22;45078;51.654;21.250;2022-07-17T11:49:35;22.20;99.90
59311;DHT22;45078;51.654;21.250;2022-07-17T11:52:13;22.30;99.90
59311;DHT22;45078;51.654;21.250;2022-07-17T11:54:53;22.40;99.70
59311;DHT22;45078;51.654;21.250;2022-07-17T11:57:26;22.00;98.80
59311;DHT22;45078;51.654;21.250;2022-07-17T11:59:52;21.50;99.90
59311;DHT22;45078;51.654;21.250;2022-07-17T12:02:22;21.60;99.90
59311;DHT22;45078;51.654;21.250;2022-07-17T12:04:55;21.40;99.90
59311;DHT22;45078;51.654;21.250;2022-07-17T12:07:23;21.70;99.30
59311;DHT22;45078;51.654;21.250;2022-07-17T12:09:51;21.70;98.20
59311;DHT22;45078;51.654;21.250;2022-07-17T12:12:27;21.90;99.30
59311;DHT22;45078;51.654;21.250;2022-07-17T12:14:58;21.70;98.00
59311;DHT22;45078;51.654;21.250;2022-07-17T12:17:26;21.50;98.30
59311;DHT22;45078;51.654;21.250;2022-07-17T12:20:04;21.60;99.80
59311;DHT22;45078;51.654;21.250;2022-07-17T12:22:30;21.80;98.00
59311;DHT22;45078;51.654;21.250;2022-07-17T12:24:56;21.70;94.80
59311;DHT22;45078;51.654;21.250;2022-07-17T12:27:22;21.80;96.60
59311;DHT22;45078;51.654;21.250;2022-07-17T12:29:49;21.90;93.60
59311;DHT22;45078;51.654;21.250;2022-07-17T12:32:16;22.00;95.60
59311;DHT22;45078;51.654;21.250;2022-07-17T12:34:48;22.00;95.10
59311;DHT22;45078;51.654;21.250;2022-07-17T12:37:23;22.20;98.20
59311;DHT22;45078;51.654;21.250;2022-07-17T12:39:49;22.20;94.20
59311;DHT22;45078;51.654;21.250;2022-07-17T12:42:16;22.30;91.90
59311;DHT22;45078;51.654;21.250;2022-07-17T12:44:43;22.40;93.70
59311;DHT22;45078;51.654;21.250;2022-07-17T12:47:09;22.50;94.40
59311;DHT22;45078;51.654;21.250;2022-07-17T12:49:35;22.70;94.50
59311;DHT22;45078;51.654;21.250;2022-07-17T12:52:01;22.80;93.20
59311;DHT22;45078;51.654;21.250;2022-07-17T12:54:27;22.60;93.30
59311;DHT22;45078;51.654;21.250;2022-07-17T12:56:53;22.60;93.30
59311;DHT22;45078;51.654;21.250;2022-07-17T12:59:19;22.40;93.00
59311;DHT22;45078;51.654;21.250;2022-07-17T13:01:46;22.40;94.60
59311;DHT22;45078;51.654;21.250;2022-07-17T13:04:13;22.50;95.70
59311;DHT22;45078;51.654;21.250;2022-07-17T13:06:39;22.80;92.00
59311;DHT22;45078;51.654;21.250;2022-07-17T13:09:05;22.90;91.20
59311;DHT22;45078;51.654;21.250;2022-07-17T13:11:31;22.90;90.00
59311;DHT22;45078;51.654;21.250;2022-07-17T13:13:56;22.80;87.00
59311;DHT22;45078;51.654;21.250;2022-07-17T13:16:23;22.90;91.60
59311;DHT22;45078;51.654;21.250;2022-07-17T13:18:49;23.10;86.70
59311;DHT22;45078;51.654;21.250;2022-07-17T13:21:15;23.20;84.80
59311;DHT22;45078;51.654;21.250;2022-07-17T13:23:41;23.10;81.00
59311;DHT22;45078;51.654;21.250;2022-07-17T13:26:07;22.90;77.50
59311;DHT22;45078;51.654;21.250;2022-07-17T13:28:33;23.00;78.20
59311;DHT22;45078;51.654;21.250;2022-07-17T13:30:59;23.00;80.60
59311;DHT22;45078;51.654;21.250;2022-07-17T13:33:25;23.10;80.70
59311;DHT22;45078;51.654;21.250;2022-07-17T13:35:52;23.10;80.60
59311;DHT22;45078;51.654;21.250;2022-07-17T13:38:19;23.20;77.40
59311;DHT22;45078;51.654;21.250;2022-07-17T13:40:45;23.10;80.00
59311;DHT22;45078;51.654;21.250;2022-07-17T13:43:11;23.40;78.10
59311;DHT22;45078;51.654;21.250;2022-07-17T13:45:37;23.70;75.50
59311;DHT22;45078;51.654;21.250;2022-07-17T13:48:03;23.60;73.70
59311;DHT22;45078;51.654;21.250;2022-07-17T13:50:29;23.80;76.40
59311;DHT22;45078;51.654;21.250;2022-07-17T13:52:55;23.80;75.30
59311;DHT22;45078;51.654;21.250;2022-07-17T13:55:21;23.90;74.70
59311;DHT22;45078;51.654;21.250;2022-07-17T13:57:47;23.70;77.20
59311;DHT22;45078;51.654;21.250;2022-07-17T14:00:15;23.10;72.90
59311;DHT22;45078;51.654;21.250;2022-07-17T14:02:41;22.70;75.20
59311;DHT22;45078;51.654;21.250;2022-07-17T14:05:08;22.60;77.30
59311;DHT22;45078;51.654;21.250;2022-07-17T14:07:34;22.60;76.40
59311;DHT22;45078;51.654;21.250;2022-07-17T14:10:01;22.50;80.60
59311;DHT22;45078;51.654;21.250;2022-07-17T14:12:27;22.70;81.60
59311;DHT22;45078;51.654;21.250;2022-07-17T14:14:53;22.90;81.30
59311;DHT22;45078;51.654;21.250;2022-07-17T14:17:19;22.90;80.50
59311;DHT22;45078;51.654;21.250;2022-07-17T14:19:45;23.10;80.70
59311;DHT22;45078;51.654;21.250;2022-07-17T14:22:11;23.40;80.10
59311;DHT22;45078;51.654;21.250;2022-07-17T14:24:37;23.40;78.20
59311;DHT22;45078;51.654;21.250;2022-07-17T14:27:04;23.50;77.30
59311;DHT22;45078;51.654;21.250;2022-07-17T14:29:30;23.90;76.50
59311;DHT22;45078;51.654;21.250;2022-07-17T14:31:56;24.40;81.00
59311;DHT22;45078;51.654;21.250;2022-07-17T14:34:22;24.40;75.70
59311;DHT22;45078;51.654;21.250;2022-07-17T14:36:48;24.30;73.60
59311;DHT22;45078;51.654;21.250;2022-07-17T14:39:15;23.70;74.70
59311;DHT22;45078;51.654;21.250;2022-07-17T14:41:41;23.50;72.80
59311;DHT22;45078;51.654;21.250;2022-07-17T14:44:11;23.60;76.70
59311;DHT22;45078;51.654;21.250;2022-07-17T14:46:37;23.80;75.10
59311;DHT22;45078;51.654;21.250;2022-07-17T14:49:02;24.10;74.30
59311;DHT22;45078;51.654;21.250;2022-07-17T14:51:28;24.00;73.40
59311;DHT22;45078;51.654;21.250;2022-07-17T14:53:54;23.70;72.90
59311;DHT22;45078;51.654;21.250;2022-07-17T14:56:20;23.80;76.10
59311;DHT22;45078;51.654;21.250;2022-07-17T14:58:46;23.80;74.30
59311;DHT22;45078;51.654;21.250;2022-07-17T15:01:12;23.80;74.80
59311;DHT22;45078;51.654;21.250;2022-07-17T15:03:38;24.10;74.60
59311;DHT22;45078;51.654;21.250;2022-07-17T15:06:04;24.00;71.80
59311;DHT22;45078;51.654;21.250;2022-07-17T15:08:30;23.70;74.30
59311;DHT22;45078;51.654;21.250;2022-07-17T15:10:56;23.50;73.90
59311;DHT22;45078;51.654;21.250;2022-07-17T15:13:23;23.50;73.90
59311;DHT22;45078;51.654;21.250;2022-07-17T15:15:48;23.10;74.90
59311;DHT22;45078;51.654;21.250;2022-07-17T15:18:14;23.10;76.90